sensor_id;sensor_type;location;lat;lon;timestamp;P1;durP1;ratioP1;P2;durP2;ratioP2
11763;SDS011;5939;56.522;14.950;2023-08-12T00:00:21;1.60;;;1.50;;
11763;SDS011;5939;56.522;14.950;2023-08-12T00:02:47;1.53;;;1.43;;
11763;SDS011;5939;56.522;14.950;2023-08-12T00:05:13;2.00;;;1.70;;
11763;SDS011;5939;56.522;14.950;2023-08-12T00:07:39;3.43;;;1.67;;
11763;SDS011;5939;56.522;14.950;2023-08-12T00:10:09;2.20;;;1.80;;
11763;SDS011;5939;56.522;14.950;2023-08-12T00:12:36;3.03;;;1.73;;
11763;SDS011;5939;56.522;14.950;2023-08-12T00:15:03;3.37;;;1.60;;
11763;SDS011;5939;56.522;14.950;2023-08-12T00:17:31;2.03;;;1.60;;
11763;SDS011;5939;56.522;14.950;2023-08-12T00:19:56;1.60;;;1.40;;
11763;SDS011;5939;56.522;14.950;2023-08-12T00:22:22;1.33;;;1.23;;
11763;SDS011;5939;56.522;14.950;2023-08-12T00:24:48;1.70;;;1.60;;
11763;SDS011;5939;56.522;14.950;2023-08-12T00:27:14;1.90;;;1.73;;
11763;SDS011;5939;56.522;14.950;2023-08-12T00:29:40;2.00;;;1.57;;
11763;SDS011;5939;56.522;14.950;2023-08-12T00:32:05;3.43;;;1.83;;
11763;SDS011;5939;56.522;14.950;2023-08-12T00:34:31;3.03;;;1.70;;
11763;SDS011;5939;56.522;14.950;2023-08-12T00:36:56;2.27;;;1.80;;
11763;SDS011;5939;56.522;14.950;2023-08-12T00:39:22;1.93;;;1.70;;
11763;SDS011;5939;56.522;14.950;2023-08-12T00:41:48;1.67;;;1.57;;
11763;SDS011;5939;56.522;14.950;2023-08-12T00:44:14;1.77;;;1.60;;
11763;SDS011;5939;56.522;14.950;2023-08-12T00:46:40;3.73;;;1.90;;
11763;SDS011;5939;56.522;14.950;2023-08-12T00:49:06;1.90;;;1.70;;
11763;SDS011;5939;56.522;14.950;2023-08-12T00:51:33;2.10;;;1.60;;
11763;SDS011;5939;56.522;14.950;2023-08-12T00:54:00;2.13;;;1.80;;
11763;SDS011;5939;56.522;14.950;2023-08-12T00:56:29;2.10;;;1.80;;
11763;SDS011;5939;56.522;14.950;2023-08-12T00:58:57;2.63;;;1.90;;
11763;SDS011;5939;56.522;14.950;2023-08-12T01:01:24;2.93;;;1.83;;
11763;SDS011;5939;56.522;14.950;2023-08-12T01:03:49;2.30;;;1.87;;
11763;SDS011;5939;56.522;14.950;2023-08-12T01:06:16;2.03;;;1.83;;
11763;SDS011;5939;56.522;14.950;2023-08-12T01:08:42;2.57;;;1.93;;
11763;SDS011;5939;56.522;14.950;2023-08-12T01:16:49;3.00;;;2.00;;
11763;SDS011;5939;56.522;14.950;2023-08-12T01:19:29;3.03;;;1.83;;
11763;SDS011;5939;56.522;14.950;2023-08-12T01:22:00;3.13;;;1.97;;
11763;SDS011;5939;56.522;14.950;2023-08-12T01:24:27;2.30;;;1.90;;
11763;SDS011;5939;56.522;14.950;2023-08-12T01:27:00;3.20;;;2.27;;
11763;SDS011;5939;56.522;14.950;2023-08-12T01:29:26;2.10;;;1.57;;
11763;SDS011;5939;56.522;14.950;2023-08-12T01:31:54;2.57;;;2.00;;
11763;SDS011;5939;56.522;14.950;2023-08-12T01:37:02;4.20;;;2.20;;
11763;SDS011;5939;56.522;14.950;2023-08-12T01:39:30;3.63;;;2.20;;
11763;SDS011;5939;56.522;14.950;2023-08-12T01:41:58;2.57;;;2.30;;
11763;SDS011;5939;56.522;14.950;2023-08-12T01:44:24;2.90;;;2.30;;
11763;SDS011;5939;56.522;14.950;2023-08-12T01:46:50;3.20;;;2.60;;
11763;SDS011;5939;56.522;14.950;2023-08-12T01:49:15;2.77;;;2.20;;
11763;SDS011;5939;56.522;14.950;2023-08-12T01:51:41;3.73;;;2.40;;
11763;SDS011;5939;56.522;14.950;2023-08-12T01:54:07;3.17;;;2.20;;
11763;SDS011;5939;56.522;14.950;2023-08-12T01:56:32;2.73;;;2.30;;
11763;SDS011;5939;56.522;14.950;2023-08-12T01:58:58;2.60;;;2.40;;
11763;SDS011;5939;56.522;14.950;2023-08-12T02:01:23;2.53;;;2.33;;
11763;SDS011;5939;56.522;14.950;2023-08-12T02:03:49;4.47;;;2.70;;
11763;SDS011;5939;56.522;14.950;2023-08-12T02:06:15;3.50;;;2.70;;
11763;SDS011;5939;56.522;14.950;2023-08-12T02:08:40;3.17;;;2.37;;
11763;SDS011;5939;56.522;14.950;2023-08-12T02:11:06;3.10;;;2.10;;
11763;SDS011;5939;56.522;14.950;2023-08-12T02:13:31;3.07;;;2.30;;
11763;SDS011;5939;56.522;14.950;2023-08-12T02:15:57;2.80;;;2.50;;
11763;SDS011;5939;56.522;14.950;2023-08-12T02:18:23;2.70;;;2.37;;
11763;SDS011;5939;56.522;14.950;2023-08-12T02:20:48;2.70;;;2.40;;
11763;SDS011;5939;56.522;14.950;2023-08-12T02:23:14;3.40;;;2.57;;
11763;SDS011;5939;56.522;14.950;2023-08-12T02:25:39;4.00;;;2.70;;
11763;SDS011;5939;56.522;14.950;2023-08-12T02:28:05;2.73;;;2.40;;
11763;SDS011;5939;56.522;14.950;2023-08-12T02:30:31;3.03;;;2.27;;
11763;SDS011;5939;56.522;14.950;2023-08-12T02:32:56;2.97;;;2.67;;
11763;SDS011;5939;56.522;14.950;2023-08-12T02:35:22;3.17;;;2.43;;
11763;SDS011;5939;56.522;14.950;2023-08-12T02:37:48;4.83;;;2.70;;
11763;SDS011;5939;56.522;14.950;2023-08-12T02:40:14;3.63;;;2.43;;
11763;SDS011;5939;56.522;14.950;2023-08-12T02:42:39;3.40;;;2.40;;
11763;SDS011;5939;56.522;14.950;2023-08-12T02:45:05;4.10;;;2.80;;
11763;SDS011;5939;56.522;14.950;2023-08-12T02:47:31;3.47;;;2.33;;
11763;SDS011;5939;56.522;14.950;2023-08-12T02:49:57;3.50;;;2.57;;
11763;SDS011;5939;56.522;14.950;2023-08-12T02:52:22;4.53;;;2.60;;
11763;SDS011;5939;56.522;14.950;2023-08-12T02:54:48;2.73;;;2.43;;
11763;SDS011;5939;56.522;14.950;2023-08-12T02:57:14;3.80;;;2.40;;
11763;SDS011;5939;56.522;14.950;2023-08-12T02:59:39;3.77;;;2.40;;
11763;SDS011;5939;56.522;14.950;2023-08-12T03:02:05;3.60;;;2.30;;
11763;SDS011;5939;56.522;14.950;2023-08-12T03:04:31;2.47;;;2.10;;
11763;SDS011;5939;56.522;14.950;2023-08-12T03:06:56;4.10;;;2.70;;
11763;SDS011;5939;56.522;14.950;2023-08-12T03:09:22;2.47;;;2.27;;
11763;SDS011;5939;56.522;14.950;2023-08-12T03:11:48;3.47;;;2.50;;
11763;SDS011;5939;56.522;14.950;2023-08-12T03:14:13;2.70;;;2.20;;
11763;SDS011;5939;56.522;14.950;2023-08-12T03:16:39;3.90;;;2.73;;
11763;SDS011;5939;56.522;14.950;2023-08-12T03:19:05;2.83;;;2.03;;
11763;SDS011;5939;56.522;14.950;2023-08-12T03:21:30;2.73;;;1.90;;
11763;SDS011;5939;56.522;14.950;2023-08-12T03:23:56;2.60;;;2.37;;
11763;SDS011;5939;56.522;14.950;2023-08-12T03:26:22;4.77;;;2.47;;
11763;SDS011;5939;56.522;14.950;2023-08-12T03:28:47;2.80;;;2.20;;
11763;SDS011;5939;56.522;14.950;2023-08-12T03:31:13;2.50;;;2.20;;
11763;SDS011;5939;56.522;14.950;2023-08-12T03:33:38;4.00;;;2.30;;
11763;SDS011;5939;56.522;14.950;2023-08-12T03:36:04;2.80;;;2.13;;
11763;SDS011;5939;56.522;14.950;2023-08-12T03:38:30;2.80;;;2.30;;
11763;SDS011;5939;56.522;14.950;2023-08-12T03:40:55;3.73;;;2.17;;
11763;SDS011;5939;56.522;14.950;2023-08-12T03:43:21;2.10;;;1.80;;
11763;SDS011;5939;56.522;14.950;2023-08-12T03:45:47;3.37;;;1.87;;
11763;SDS011;5939;56.522;14.950;2023-08-12T03:48:12;2.10;;;1.90;;
11763;SDS011;5939;56.522;14.950;2023-08-12T03:50:38;2.70;;;1.80;;
11763;SDS011;5939;56.522;14.950;2023-08-12T03:53:05;4.67;;;1.70;;
11763;SDS011;5939;56.522;14.950;2023-08-12T03:55:32;3.03;;;2.10;;
11763;SDS011;5939;56.522;14.950;2023-08-12T03:58:01;2.20;;;2.00;;
11763;SDS011;5939;56.522;14.950;2023-08-12T04:00:27;2.27;;;1.97;;
11763;SDS011;5939;56.522;14.950;2023-08-12T04:02:53;2.67;;;2.00;;
11763;SDS011;5939;56.522;14.950;2023-08-12T04:05:19;1.70;;;1.60;;
11763;SDS011;5939;56.522;14.950;2023-08-12T04:07:45;2.23;;;1.90;;
11763;SDS011;5939;56.522;14.950;2023-08-12T04:10:10;2.13;;;1.90;;
11763;SDS011;5939;56.522;14.950;2023-08-12T04:12:36;2.40;;;1.83;;
11763;SDS011;5939;56.522;14.950;2023-08-12T04:15:02;2.40;;;2.00;;
11763;SDS011;5939;56.522;14.950;2023-08-12T04:17:30;4.23;;;2.30;;
11763;SDS011;5939;56.522;14.950;2023-08-12T04:19:56;2.80;;;1.77;;
11763;SDS011;5939;56.522;14.950;2023-08-12T04:22:22;1.97;;;1.60;;
11763;SDS011;5939;56.522;14.950;2023-08-12T04:24:47;2.73;;;1.67;;
11763;SDS011;5939;56.522;14.950;2023-08-12T04:27:13;2.23;;;1.70;;
11763;SDS011;5939;56.522;14.950;2023-08-12T04:29:39;2.20;;;2.00;;
11763;SDS011;5939;56.522;14.950;2023-08-12T04:32:04;2.17;;;1.60;;
11763;SDS011;5939;56.522;14.950;2023-08-12T04:34:30;2.97;;;1.90;;
11763;SDS011;5939;56.522;14.950;2023-08-12T04:36:56;2.23;;;1.80;;
11763;SDS011;5939;56.522;14.950;2023-08-12T04:39:21;2.90;;;1.77;;
11763;SDS011;5939;56.522;14.950;2023-08-12T04:41:47;6.63;;;2.30;;
11763;SDS011;5939;56.522;14.950;2023-08-12T04:44:13;3.20;;;1.90;;
11763;SDS011;5939;56.522;14.950;2023-08-12T04:46:39;2.80;;;1.97;;
11763;SDS011;5939;56.522;14.950;2023-08-12T04:49:04;2.63;;;1.80;;
11763;SDS011;5939;56.522;14.950;2023-08-12T04:51:30;1.93;;;1.80;;
11763;SDS011;5939;56.522;14.950;2023-08-12T04:53:56;1.93;;;1.73;;
11763;SDS011;5939;56.522;14.950;2023-08-12T04:56:22;1.90;;;1.70;;
11763;SDS011;5939;56.522;14.950;2023-08-12T04:58:49;2.23;;;1.87;;
11763;SDS011;5939;56.522;14.950;2023-08-12T05:01:14;2.37;;;1.70;;
11763;SDS011;5939;56.522;14.950;2023-08-12T05:03:40;2.90;;;2.17;;
11763;SDS011;5939;56.522;14.950;2023-08-12T05:06:06;1.77;;;1.53;;
11763;SDS011;5939;56.522;14.950;2023-08-12T05:08:32;2.27;;;1.77;;
11763;SDS011;5939;56.522;14.950;2023-08-12T05:10:57;1.90;;;1.70;;
11763;SDS011;5939;56.522;14.950;2023-08-12T05:13:23;2.20;;;1.63;;
11763;SDS011;5939;56.522;14.950;2023-08-12T05:15:49;2.63;;;1.80;;
11763;SDS011;5939;56.522;14.950;2023-08-12T05:18:15;2.70;;;1.90;;
11763;SDS011;5939;56.522;14.950;2023-08-12T05:20:41;2.50;;;1.87;;
11763;SDS011;5939;56.522;14.950;2023-08-12T05:23:07;3.27;;;1.80;;
11763;SDS011;5939;56.522;14.950;2023-08-12T05:25:33;1.67;;;1.50;;
11763;SDS011;5939;56.522;14.950;2023-08-12T05:27:59;2.43;;;1.73;;
11763;SDS011;5939;56.522;14.950;2023-08-12T05:30:24;2.47;;;1.80;;
11763;SDS011;5939;56.522;14.950;2023-08-12T05:32:50;2.53;;;1.83;;
11763;SDS011;5939;56.522;14.950;2023-08-12T05:35:16;2.90;;;1.83;;
11763;SDS011;5939;56.522;14.950;2023-08-12T05:37:41;2.10;;;1.53;;
11763;SDS011;5939;56.522;14.950;2023-08-12T05:40:10;1.77;;;1.57;;
11763;SDS011;5939;56.522;14.950;2023-08-12T05:42:36;3.03;;;1.70;;
11763;SDS011;5939;56.522;14.950;2023-08-12T05:45:02;2.20;;;1.70;;
11763;SDS011;5939;56.522;14.950;2023-08-12T05:47:29;3.00;;;1.87;;
11763;SDS011;5939;56.522;14.950;2023-08-12T05:49:55;1.70;;;1.60;;
11763;SDS011;5939;56.522;14.950;2023-08-12T05:52:20;3.77;;;1.80;;
11763;SDS011;5939;56.522;14.950;2023-08-12T05:54:46;3.33;;;1.80;;
11763;SDS011;5939;56.522;14.950;2023-08-12T05:57:12;2.77;;;1.70;;
11763;SDS011;5939;56.522;14.950;2023-08-12T05:59:37;2.40;;;1.70;;
11763;SDS011;5939;56.522;14.950;2023-08-12T06:02:03;2.00;;;1.60;;
11763;SDS011;5939;56.522;14.950;2023-08-12T06:04:29;3.47;;;1.73;;
11763;SDS011;5939;56.522;14.950;2023-08-12T06:06:54;2.27;;;1.63;;
11763;SDS011;5939;56.522;14.950;2023-08-12T06:09:20;5.47;;;1.90;;
11763;SDS011;5939;56.522;14.950;2023-08-12T06:11:46;3.00;;;1.63;;
11763;SDS011;5939;56.522;14.950;2023-08-12T06:14:12;3.63;;;1.57;;
11763;SDS011;5939;56.522;14.950;2023-08-12T06:16:37;1.80;;;1.70;;
11763;SDS011;5939;56.522;14.950;2023-08-12T06:19:03;1.90;;;1.67;;
11763;SDS011;5939;56.522;14.950;2023-08-12T06:21:29;3.80;;;1.80;;
11763;SDS011;5939;56.522;14.950;2023-08-12T06:23:55;1.90;;;1.63;;
11763;SDS011;5939;56.522;14.950;2023-08-12T06:26:21;3.20;;;1.73;;
11763;SDS011;5939;56.522;14.950;2023-08-12T06:28:46;2.43;;;1.70;;
11763;SDS011;5939;56.522;14.950;2023-08-12T06:31:12;3.27;;;1.60;;
11763;SDS011;5939;56.522;14.950;2023-08-12T06:33:38;4.27;;;1.73;;
11763;SDS011;5939;56.522;14.950;2023-08-12T06:36:04;1.90;;;1.47;;
11763;SDS011;5939;56.522;14.950;2023-08-12T06:38:30;1.60;;;1.40;;
11763;SDS011;5939;56.522;14.950;2023-08-12T06:40:55;3.23;;;1.50;;
11763;SDS011;5939;56.522;14.950;2023-08-12T06:43:21;5.27;;;1.50;;
11763;SDS011;5939;56.522;14.950;2023-08-12T06:45:46;2.00;;;1.53;;
11763;SDS011;5939;56.522;14.950;2023-08-12T06:48:12;1.50;;;1.40;;
11763;SDS011;5939;56.522;14.950;2023-08-12T06:50:38;2.00;;;1.50;;
11763;SDS011;5939;56.522;14.950;2023-08-12T06:53:03;2.87;;;1.60;;
11763;SDS011;5939;56.522;14.950;2023-08-12T06:55:29;1.50;;;1.30;;
11763;SDS011;5939;56.522;14.950;2023-08-12T06:57:55;2.23;;;1.77;;
11763;SDS011;5939;56.522;14.950;2023-08-12T07:00:20;3.10;;;1.60;;
11763;SDS011;5939;56.522;14.950;2023-08-12T07:02:46;2.03;;;1.40;;
11763;SDS011;5939;56.522;14.950;2023-08-12T07:05:12;1.83;;;1.30;;
11763;SDS011;5939;56.522;14.950;2023-08-12T07:07:37;2.37;;;1.67;;
11763;SDS011;5939;56.522;14.950;2023-08-12T07:10:03;2.60;;;1.30;;
11763;SDS011;5939;56.522;14.950;2023-08-12T07:12:30;2.40;;;1.30;;
11763;SDS011;5939;56.522;14.950;2023-08-12T07:14:56;1.70;;;1.50;;
11763;SDS011;5939;56.522;14.950;2023-08-12T07:17:21;4.07;;;1.37;;
11763;SDS011;5939;56.522;14.950;2023-08-12T07:19:47;2.00;;;1.47;;
11763;SDS011;5939;56.522;14.950;2023-08-12T07:22:12;1.43;;;1.20;;
11763;SDS011;5939;56.522;14.950;2023-08-12T07:24:38;1.80;;;1.70;;
11763;SDS011;5939;56.522;14.950;2023-08-12T07:27:04;2.00;;;1.23;;
11763;SDS011;5939;56.522;14.950;2023-08-12T07:29:29;1.30;;;1.20;;
11763;SDS011;5939;56.522;14.950;2023-08-12T07:31:55;1.77;;;1.40;;
11763;SDS011;5939;56.522;14.950;2023-08-12T07:34:21;1.93;;;1.30;;
11763;SDS011;5939;56.522;14.950;2023-08-12T07:36:47;1.77;;;1.30;;
11763;SDS011;5939;56.522;14.950;2023-08-12T07:39:12;3.30;;;1.50;;
11763;SDS011;5939;56.522;14.950;2023-08-12T07:41:38;1.27;;;1.17;;
11763;SDS011;5939;56.522;14.950;2023-08-12T07:44:04;1.77;;;1.30;;
11763;SDS011;5939;56.522;14.950;2023-08-12T07:46:30;1.40;;;1.30;;
11763;SDS011;5939;56.522;14.950;2023-08-12T07:48:56;1.67;;;1.40;;
11763;SDS011;5939;56.522;14.950;2023-08-12T07:51:22;2.37;;;1.40;;
11763;SDS011;5939;56.522;14.950;2023-08-12T07:53:47;2.13;;;1.33;;
11763;SDS011;5939;56.522;14.950;2023-08-12T07:56:13;2.13;;;1.53;;
11763;SDS011;5939;56.522;14.950;2023-08-12T07:58:39;1.40;;;1.30;;
11763;SDS011;5939;56.522;14.950;2023-08-12T08:01:04;2.30;;;1.23;;
11763;SDS011;5939;56.522;14.950;2023-08-12T08:03:31;3.53;;;1.43;;
11763;SDS011;5939;56.522;14.950;2023-08-12T08:05:56;2.10;;;1.20;;
11763;SDS011;5939;56.522;14.950;2023-08-12T08:08:22;3.33;;;1.47;;
11763;SDS011;5939;56.522;14.950;2023-08-12T08:10:48;3.23;;;1.40;;
11763;SDS011;5939;56.522;14.950;2023-08-12T08:13:13;1.50;;;1.33;;
11763;SDS011;5939;56.522;14.950;2023-08-12T08:15:39;2.30;;;1.23;;
11763;SDS011;5939;56.522;14.950;2023-08-12T08:18:04;2.17;;;1.20;;
11763;SDS011;5939;56.522;14.950;2023-08-12T08:20:30;2.20;;;1.40;;
11763;SDS011;5939;56.522;14.950;2023-08-12T08:22:56;1.47;;;1.37;;
11763;SDS011;5939;56.522;14.950;2023-08-12T08:25:22;1.20;;;1.10;;
11763;SDS011;5939;56.522;14.950;2023-08-12T08:27:47;2.93;;;1.30;;
11763;SDS011;5939;56.522;14.950;2023-08-12T08:30:13;1.47;;;1.37;;
11763;SDS011;5939;56.522;14.950;2023-08-12T08:32:39;2.07;;;1.43;;
11763;SDS011;5939;56.522;14.950;2023-08-12T08:35:05;1.50;;;1.30;;
11763;SDS011;5939;56.522;14.950;2023-08-12T08:37:31;2.23;;;1.20;;
11763;SDS011;5939;56.522;14.950;2023-08-12T08:39:57;2.07;;;1.10;;
11763;SDS011;5939;56.522;14.950;2023-08-12T08:42:22;2.70;;;1.20;;
11763;SDS011;5939;56.522;14.950;2023-08-12T08:44:53;1.73;;;1.20;;
11763;SDS011;5939;56.522;14.950;2023-08-12T08:47:22;3.77;;;1.30;;
11763;SDS011;5939;56.522;14.950;2023-08-12T08:49:52;1.67;;;1.30;;
11763;SDS011;5939;56.522;14.950;2023-08-12T08:52:20;1.80;;;1.30;;
11763;SDS011;5939;56.522;14.950;2023-08-12T08:54:48;1.40;;;1.30;;
11763;SDS011;5939;56.522;14.950;2023-08-12T08:57:14;1.40;;;1.30;;
11763;SDS011;5939;56.522;14.950;2023-08-12T08:59:40;1.97;;;1.30;;
11763;SDS011;5939;56.522;14.950;2023-08-12T09:02:06;1.40;;;1.30;;
11763;SDS011;5939;56.522;14.950;2023-08-12T09:04:43;2.33;;;1.00;;
11763;SDS011;5939;56.522;14.950;2023-08-12T09:07:11;1.30;;;1.10;;
11763;SDS011;5939;56.522;14.950;2023-08-12T09:09:39;2.03;;;1.30;;
11763;SDS011;5939;56.522;14.950;2023-08-12T09:12:09;1.77;;;1.20;;
11763;SDS011;5939;56.522;14.950;2023-08-12T09:14:38;1.43;;;1.20;;
11763;SDS011;5939;56.522;14.950;2023-08-12T09:17:04;1.50;;;1.10;;
11763;SDS011;5939;56.522;14.950;2023-08-12T09:19:30;1.47;;;1.20;;
11763;SDS011;5939;56.522;14.950;2023-08-12T09:21:56;2.07;;;1.20;;
11763;SDS011;5939;56.522;14.950;2023-08-12T09:24:25;1.47;;;1.37;;
11763;SDS011;5939;56.522;14.950;2023-08-12T09:26:52;2.80;;;1.40;;
11763;SDS011;5939;56.522;14.950;2023-08-12T09:29:22;1.50;;;1.30;;
11763;SDS011;5939;56.522;14.950;2023-08-12T09:31:49;1.97;;;1.20;;
11763;SDS011;5939;56.522;14.950;2023-08-12T09:34:15;2.57;;;1.30;;
11763;SDS011;5939;56.522;14.950;2023-08-12T09:36:43;1.60;;;1.30;;
11763;SDS011;5939;56.522;14.950;2023-08-12T09:39:09;2.17;;;1.20;;
11763;SDS011;5939;56.522;14.950;2023-08-12T09:41:34;1.60;;;1.37;;
11763;SDS011;5939;56.522;14.950;2023-08-12T09:44:03;3.33;;;1.43;;
11763;SDS011;5939;56.522;14.950;2023-08-12T09:46:29;2.70;;;1.23;;
11763;SDS011;5939;56.522;14.950;2023-08-12T09:48:58;1.50;;;1.40;;
11763;SDS011;5939;56.522;14.950;2023-08-12T09:51:23;2.90;;;1.40;;
11763;SDS011;5939;56.522;14.950;2023-08-12T09:53:49;1.30;;;1.07;;
11763;SDS011;5939;56.522;14.950;2023-08-12T09:56:18;1.27;;;1.17;;
11763;SDS011;5939;56.522;14.950;2023-08-12T09:58:48;4.30;;;1.30;;
11763;SDS011;5939;56.522;14.950;2023-08-12T10:01:18;1.67;;;1.20;;
11763;SDS011;5939;56.522;14.950;2023-08-12T10:03:50;1.20;;;1.10;;
11763;SDS011;5939;56.522;14.950;2023-08-12T10:06:17;1.33;;;1.23;;
11763;SDS011;5939;56.522;14.950;2023-08-12T10:08:45;1.37;;;1.27;;
11763;SDS011;5939;56.522;14.950;2023-08-12T10:11:12;1.40;;;1.30;;
11763;SDS011;5939;56.522;14.950;2023-08-12T10:13:40;2.60;;;1.40;;
11763;SDS011;5939;56.522;14.950;2023-08-12T10:16:06;2.67;;;1.27;;
11763;SDS011;5939;56.522;14.950;2023-08-12T10:18:34;1.73;;;1.40;;
11763;SDS011;5939;56.522;14.950;2023-08-12T10:21:01;2.43;;;1.27;;
11763;SDS011;5939;56.522;14.950;2023-08-12T10:23:27;1.40;;;1.30;;
11763;SDS011;5939;56.522;14.950;2023-08-12T10:25:54;1.60;;;1.27;;
11763;SDS011;5939;56.522;14.950;2023-08-12T10:28:20;1.40;;;1.30;;
11763;SDS011;5939;56.522;14.950;2023-08-12T10:30:47;1.53;;;1.40;;
11763;SDS011;5939;56.522;14.950;2023-08-12T10:33:16;1.90;;;1.40;;
11763;SDS011;5939;56.522;14.950;2023-08-12T10:35:45;1.53;;;1.30;;
11763;SDS011;5939;56.522;14.950;2023-08-12T10:38:21;1.50;;;1.40;;
11763;SDS011;5939;56.522;14.950;2023-08-12T10:40:50;1.60;;;1.50;;
11763;SDS011;5939;56.522;14.950;2023-08-12T10:43:16;1.50;;;1.40;;
11763;SDS011;5939;56.522;14.950;2023-08-12T10:46:02;2.60;;;1.60;;
11763;SDS011;5939;56.522;14.950;2023-08-12T10:48:27;2.67;;;1.80;;
11763;SDS011;5939;56.522;14.950;2023-08-12T10:50:54;3.17;;;2.10;;
11763;SDS011;5939;56.522;14.950;2023-08-12T10:53:27;2.37;;;1.73;;
11763;SDS011;5939;56.522;14.950;2023-08-12T10:55:58;2.00;;;1.80;;
11763;SDS011;5939;56.522;14.950;2023-08-12T10:58:27;2.93;;;1.80;;
11763;SDS011;5939;56.522;14.950;2023-08-12T11:01:19;1.97;;;1.70;;
11763;SDS011;5939;56.522;14.950;2023-08-12T11:03:45;2.50;;;1.80;;
11763;SDS011;5939;56.522;14.950;2023-08-12T11:06:13;2.60;;;1.60;;
11763;SDS011;5939;56.522;14.950;2023-08-12T11:08:47;2.30;;;1.70;;
11763;SDS011;5939;56.522;14.950;2023-08-12T11:11:22;2.53;;;1.90;;
11763;SDS011;5939;56.522;14.950;2023-08-12T11:13:56;1.97;;;1.80;;
11763;SDS011;5939;56.522;14.950;2023-08-12T11:16:34;2.10;;;2.00;;
11763;SDS011;5939;56.522;14.950;2023-08-12T11:19:01;2.70;;;1.87;;
11763;SDS011;5939;56.522;14.950;2023-08-12T11:21:28;2.13;;;1.90;;
11763;SDS011;5939;56.522;14.950;2023-08-12T11:23:54;3.13;;;2.07;;
11763;SDS011;5939;56.522;14.950;2023-08-12T11:26:20;2.60;;;1.90;;
11763;SDS011;5939;56.522;14.950;2023-08-12T11:28:50;2.43;;;2.23;;
11763;SDS011;5939;56.522;14.950;2023-08-12T11:31:16;3.77;;;2.30;;
11763;SDS011;5939;56.522;14.950;2023-08-12T11:33:42;2.37;;;2.10;;
11763;SDS011;5939;56.522;14.950;2023-08-12T11:36:08;2.80;;;2.10;;
11763;SDS011;5939;56.522;14.950;2023-08-12T11:38:34;2.43;;;2.17;;
11763;SDS011;5939;56.522;14.950;2023-08-12T11:41:01;2.77;;;2.30;;
11763;SDS011;5939;56.522;14.950;2023-08-12T11:43:31;4.43;;;2.40;;
11763;SDS011;5939;56.522;14.950;2023-08-12T11:45:57;2.83;;;2.20;;
11763;SDS011;5939;56.522;14.950;2023-08-12T11:48:24;2.30;;;2.10;;
11763;SDS011;5939;56.522;14.950;2023-08-12T11:50:52;3.37;;;2.60;;
11763;SDS011;5939;56.522;14.950;2023-08-12T11:53:18;2.80;;;2.10;;
11763;SDS011;5939;56.522;14.950;2023-08-12T11:55:44;4.30;;;2.50;;
11763;SDS011;5939;56.522;14.950;2023-08-12T11:58:11;3.53;;;2.40;;
11763;SDS011;5939;56.522;14.950;2023-08-12T12:00:38;3.80;;;2.40;;
11763;SDS011;5939;56.522;14.950;2023-08-12T12:03:04;3.23;;;2.30;;
11763;SDS011;5939;56.522;14.950;2023-08-12T12:05:31;2.97;;;2.60;;
11763;SDS011;5939;56.522;14.950;2023-08-12T12:07:59;3.63;;;2.50;;
11763;SDS011;5939;56.522;14.950;2023-08-12T12:10:29;3.27;;;2.40;;
11763;SDS011;5939;56.522;14.950;2023-08-12T12:12:56;2.73;;;2.50;;
11763;SDS011;5939;56.522;14.950;2023-08-12T12:15:22;2.80;;;2.33;;
11763;SDS011;5939;56.522;14.950;2023-08-12T12:17:51;3.83;;;2.70;;
11763;SDS011;5939;56.522;14.950;2023-08-12T12:20:17;3.80;;;2.60;;
11763;SDS011;5939;56.522;14.950;2023-08-12T12:22:44;2.97;;;1.93;;
11763;SDS011;5939;56.522;14.950;2023-08-12T12:25:14;4.13;;;2.83;;
11763;SDS011;5939;56.522;14.950;2023-08-12T12:27:41;3.63;;;2.53;;
11763;SDS011;5939;56.522;14.950;2023-08-12T12:30:08;4.13;;;2.60;;
11763;SDS011;5939;56.522;14.950;2023-08-12T12:32:35;3.87;;;2.63;;
11763;SDS011;5939;56.522;14.950;2023-08-12T12:35:01;2.50;;;2.30;;
11763;SDS011;5939;56.522;14.950;2023-08-12T12:37:28;3.13;;;2.30;;
11763;SDS011;5939;56.522;14.950;2023-08-12T12:39:54;3.33;;;2.60;;
11763;SDS011;5939;56.522;14.950;2023-08-12T12:42:20;3.03;;;2.20;;
11763;SDS011;5939;56.522;14.950;2023-08-12T12:44:45;3.80;;;2.60;;
11763;SDS011;5939;56.522;14.950;2023-08-12T12:47:11;2.80;;;2.20;;
11763;SDS011;5939;56.522;14.950;2023-08-12T12:49:37;2.47;;;2.27;;
11763;SDS011;5939;56.522;14.950;2023-08-12T12:52:09;2.60;;;2.40;;
11763;SDS011;5939;56.522;14.950;2023-08-12T12:54:34;2.80;;;2.33;;
11763;SDS011;5939;56.522;14.950;2023-08-12T12:57:00;2.93;;;2.50;;
11763;SDS011;5939;56.522;14.950;2023-08-12T12:59:26;2.70;;;2.47;;
11763;SDS011;5939;56.522;14.950;2023-08-12T13:01:52;2.77;;;2.53;;
11763;SDS011;5939;56.522;14.950;2023-08-12T13:04:18;3.40;;;2.40;;
11763;SDS011;5939;56.522;14.950;2023-08-12T13:06:44;3.10;;;2.67;;
11763;SDS011;5939;56.522;14.950;2023-08-12T13:09:10;2.47;;;2.27;;
11763;SDS011;5939;56.522;14.950;2023-08-12T13:11:35;4.07;;;2.20;;
11763;SDS011;5939;56.522;14.950;2023-08-12T13:14:01;3.20;;;2.20;;
11763;SDS011;5939;56.522;14.950;2023-08-12T13:16:28;2.47;;;2.10;;
11763;SDS011;5939;56.522;14.950;2023-08-12T13:18:54;2.93;;;2.30;;
11763;SDS011;5939;56.522;14.950;2023-08-12T13:21:19;3.37;;;2.27;;
11763;SDS011;5939;56.522;14.950;2023-08-12T13:23:45;2.80;;;2.20;;
11763;SDS011;5939;56.522;14.950;2023-08-12T13:26:11;2.37;;;2.17;;
11763;SDS011;5939;56.522;14.950;2023-08-12T13:28:36;3.13;;;2.30;;
11763;SDS011;5939;56.522;14.950;2023-08-12T13:31:02;2.50;;;2.30;;
11763;SDS011;5939;56.522;14.950;2023-08-12T13:33:28;2.37;;;2.13;;
11763;SDS011;5939;56.522;14.950;2023-08-12T13:35:54;3.73;;;2.43;;
11763;SDS011;5939;56.522;14.950;2023-08-12T13:38:19;3.17;;;2.30;;
11763;SDS011;5939;56.522;14.950;2023-08-12T13:40:45;2.13;;;1.93;;
11763;SDS011;5939;56.522;14.950;2023-08-12T13:43:11;2.30;;;2.10;;
11763;SDS011;5939;56.522;14.950;2023-08-12T13:45:36;2.40;;;2.20;;
11763;SDS011;5939;56.522;14.950;2023-08-12T13:48:02;2.33;;;2.13;;
11763;SDS011;5939;56.522;14.950;2023-08-12T13:50:28;2.93;;;2.20;;
11763;SDS011;5939;56.522;14.950;2023-08-12T13:52:53;3.70;;;2.40;;
11763;SDS011;5939;56.522;14.950;2023-08-12T13:55:19;2.57;;;2.10;;
11763;SDS011;5939;56.522;14.950;2023-08-12T13:57:45;2.57;;;2.10;;
11763;SDS011;5939;56.522;14.950;2023-08-12T14:00:11;3.03;;;2.37;;
11763;SDS011;5939;56.522;14.950;2023-08-12T14:02:39;3.20;;;2.23;;
11763;SDS011;5939;56.522;14.950;2023-08-12T14:05:05;2.40;;;2.20;;
11763;SDS011;5939;56.522;14.950;2023-08-12T14:07:31;2.20;;;2.00;;
11763;SDS011;5939;56.522;14.950;2023-08-12T14:09:58;3.07;;;2.40;;
11763;SDS011;5939;56.522;14.950;2023-08-12T14:12:24;3.30;;;2.20;;
11763;SDS011;5939;56.522;14.950;2023-08-12T14:14:49;2.60;;;2.20;;
11763;SDS011;5939;56.522;14.950;2023-08-12T14:17:15;2.73;;;2.13;;
11763;SDS011;5939;56.522;14.950;2023-08-12T14:19:43;2.30;;;2.10;;
11763;SDS011;5939;56.522;14.950;2023-08-12T14:22:12;4.07;;;2.33;;
11763;SDS011;5939;56.522;14.950;2023-08-12T14:24:38;2.20;;;2.00;;
11763;SDS011;5939;56.522;14.950;2023-08-12T14:27:04;1.97;;;1.87;;
11763;SDS011;5939;56.522;14.950;2023-08-12T14:29:30;3.00;;;2.23;;
11763;SDS011;5939;56.522;14.950;2023-08-12T14:31:56;2.50;;;2.27;;
11763;SDS011;5939;56.522;14.950;2023-08-12T14:34:22;2.20;;;2.00;;
11763;SDS011;5939;56.522;14.950;2023-08-12T14:36:48;2.63;;;2.30;;
11763;SDS011;5939;56.522;14.950;2023-08-12T14:39:13;2.70;;;2.03;;
11763;SDS011;5939;56.522;14.950;2023-08-12T14:41:39;2.37;;;2.10;;
11763;SDS011;5939;56.522;14.950;2023-08-12T14:44:05;2.57;;;2.20;;
11763;SDS011;5939;56.522;14.950;2023-08-12T14:46:31;2.40;;;2.00;;
11763;SDS011;5939;56.522;14.950;2023-08-12T14:48:56;3.40;;;2.17;;
11763;SDS011;5939;56.522;14.950;2023-08-12T14:51:22;2.20;;;1.90;;